createdAt,value
2022-09-11T00:01:14.270Z,4.72
2022-09-11T00:04:03.004Z,5.55
2022-09-11T00:06:50.851Z,5.90
2022-09-11T00:09:39.983Z,5.40
2022-09-11T00:12:27.621Z,6.75
2022-09-11T00:15:15.589Z,5.13
2022-09-11T00:18:03.142Z,6.10
2022-09-11T00:20:53.862Z,6.05
2022-09-11T00:23:41.788Z,4.93
2022-09-11T00:26:30.726Z,5.20
2022-09-11T00:29:18.403Z,6.22
2022-09-11T00:32:06.898Z,5.10
2022-09-11T00:34:54.439Z,4.55
2022-09-11T00:37:42.334Z,5.20
2022-09-11T00:40:30.409Z,4.95
2022-09-11T00:43:19.767Z,5.47
2022-09-11T00:46:07.713Z,6.35
2022-09-11T00:48:57.314Z,5.50
2022-09-11T00:51:48.870Z,5.18
2022-09-11T00:54:43.251Z,5.10
2022-09-11T00:57:36.692Z,5.88
2022-09-11T01:00:25.727Z,5.47
2022-09-11T01:03:14.503Z,5.35
2022-09-11T01:06:03.774Z,5.75
2022-09-11T01:08:51.522Z,4.80
2022-09-11T01:11:48.756Z,4.50
2022-09-11T01:14:47.614Z,6.15
2022-09-11T01:17:46.909Z,6.00
2022-09-11T01:20:49.183Z,5.03
2022-09-11T01:24:17.325Z,5.47
2022-09-11T01:27:39.375Z,5.95
2022-09-11T01:30:33.312Z,6.05
2022-09-11T01:33:28.396Z,5.15
2022-09-11T01:36:21.966Z,6.00
2022-09-11T01:39:09.707Z,5.50
2022-09-11T01:42:03.024Z,6.07
2022-09-11T01:44:57.211Z,5.55
2022-09-11T01:47:49.522Z,5.53
2022-09-11T01:50:41.446Z,5.65
2022-09-11T01:53:34.830Z,5.05
2022-09-11T01:56:28.889Z,5.38
2022-09-11T01:59:19.549Z,5.88
2022-09-11T02:02:13.835Z,5.15
2022-09-11T02:05:07.074Z,4.60
2022-09-11T02:08:00.132Z,3.45
2022-09-11T02:10:53.137Z,4.65
2022-09-11T02:13:48.061Z,4.35
2022-09-11T02:16:46.299Z,4.40
2022-09-11T02:19:35.586Z,4.05
2022-09-11T02:22:24.346Z,3.90
2022-09-11T02:25:13.811Z,4.20
2022-09-11T02:28:01.783Z,3.92
2022-09-11T02:30:49.592Z,4.80
2022-09-11T02:33:38.913Z,3.40
2022-09-11T02:36:46.233Z,3.83
2022-09-11T02:39:49.498Z,4.32
2022-09-11T02:42:56.146Z,4.55
2022-09-11T02:45:54.393Z,4.22
2022-09-11T02:48:52.733Z,4.32
2022-09-11T02:51:53.022Z,4.75
2022-09-11T02:54:52.972Z,4.13
2022-09-11T02:57:50.574Z,4.32
2022-09-11T03:00:39.412Z,4.60
2022-09-11T03:03:27.620Z,4.82
2022-09-11T03:06:19.116Z,5.07
2022-09-11T03:09:09.129Z,4.60
2022-09-11T03:11:58.174Z,5.10
2022-09-11T03:14:45.780Z,6.05
2022-09-11T03:17:33.718Z,6.43
2022-09-11T03:20:22.453Z,5.90
2022-09-11T03:23:10.814Z,5.68
2022-09-11T03:25:59.999Z,6.13
2022-09-11T03:28:47.947Z,5.93
2022-09-11T03:31:39.275Z,6.25
2022-09-11T03:34:28.265Z,7.28
2022-09-11T03:37:16.779Z,5.70
2022-09-11T03:40:05.432Z,6.65
2022-09-11T03:42:54.735Z,6.20
2022-09-11T03:45:43.207Z,6.13
2022-09-11T03:48:31.466Z,5.93
2022-09-11T03:51:19.395Z,7.72
2022-09-11T03:54:07.298Z,8.68
2022-09-11T03:56:55.500Z,6.90
2022-09-11T03:59:44.835Z,7.10
2022-09-11T04:02:33.077Z,8.35
2022-09-11T04:05:20.775Z,7.40
2022-09-11T04:08:08.685Z,7.88
2022-09-11T04:11:00.206Z,8.00
2022-09-11T04:13:48.086Z,7.75
2022-09-11T04:16:39.225Z,8.30
2022-09-11T04:19:27.268Z,7.15
2022-09-11T04:22:15.169Z,8.27
2022-09-11T04:25:03.584Z,8.02
2022-09-11T04:27:51.563Z,8.45
2022-09-11T04:30:39.453Z,8.85
2022-09-11T04:33:28.691Z,8.80
2022-09-11T04:36:18.704Z,9.40
2022-09-11T04:39:06.791Z,8.38
2022-09-11T04:41:56.040Z,12.88
2022-09-11T04:44:44.325Z,9.23
2022-09-11T04:47:32.199Z,9.32
2022-09-11T04:50:21.702Z,8.90
2022-09-11T04:53:28.966Z,9.45
2022-09-11T04:56:18.435Z,10.10
2022-09-11T04:59:15.861Z,8.82
2022-09-11T05:02:08.882Z,9.38
2022-09-11T05:05:00.993Z,11.05
2022-09-11T05:07:52.018Z,10.15
2022-09-11T05:10:40.105Z,8.50
2022-09-11T05:13:27.963Z,8.02
2022-09-11T05:16:18.051Z,9.32
2022-09-11T05:19:06.648Z,8.25
2022-09-11T05:21:55.675Z,8.23
2022-09-11T05:24:45.608Z,8.07
2022-09-11T05:27:33.415Z,8.48
2022-09-11T05:30:22.355Z,9.27
2022-09-11T05:33:14.138Z,8.18
2022-09-11T05:36:06.436Z,7.78
2022-09-11T05:38:54.510Z,8.60
2022-09-11T05:41:43.541Z,8.38
2022-09-11T05:44:33.949Z,8.18
2022-09-11T05:47:22.024Z,8.20
2022-09-11T05:50:13.585Z,10.52
2022-09-11T05:53:01.770Z,9.93
2022-09-11T05:55:51.984Z,9.20
2022-09-11T05:58:42.059Z,9.95
2022-09-11T06:01:31.214Z,13.02
2022-09-11T06:04:30.143Z,12.45
2022-09-11T06:07:19.806Z,13.48
2022-09-11T06:10:10.521Z,13.27
2022-09-11T06:12:58.774Z,12.95
2022-09-11T06:15:49.186Z,13.90
2022-09-11T06:18:36.959Z,14.00
2022-09-11T06:21:29.361Z,13.57
2022-09-11T06:24:30.063Z,14.40
2022-09-11T06:27:19.195Z,14.43
2022-09-11T06:30:11.511Z,14.70
2022-09-11T06:33:02.024Z,15.25
2022-09-11T06:35:58.827Z,18.13
2022-09-11T06:38:47.490Z,16.98
2022-09-11T06:41:37.767Z,16.75
2022-09-11T06:44:31.858Z,16.77
2022-09-11T06:47:21.879Z,16.20
2022-09-11T06:50:11.900Z,16.02
2022-09-11T06:53:21.689Z,14.82
2022-09-11T06:56:16.735Z,14.88
2022-09-11T06:59:06.842Z,16.90
2022-09-11T07:01:55.490Z,16.85
2022-09-11T07:04:43.439Z,15.45
2022-09-11T07:07:34.023Z,15.30
2022-09-11T07:10:22.306Z,15.48
2022-09-11T07:13:14.279Z,14.60
2022-09-11T07:16:03.509Z,13.85
2022-09-11T07:18:54.134Z,13.95
2022-09-11T07:21:43.498Z,14.25
2022-09-11T07:24:33.275Z,13.48
2022-09-11T07:27:21.223Z,13.85
2022-09-11T07:30:10.314Z,14.25
2022-09-11T07:33:00.601Z,13.50
2022-09-11T07:35:48.652Z,12.52
2022-09-11T07:38:37.295Z,11.27
2022-09-11T07:41:31.270Z,12.25
2022-09-11T07:44:23.337Z,11.93
2022-09-11T07:47:11.974Z,11.60
2022-09-11T07:50:04.534Z,10.50
2022-09-11T07:52:53.335Z,10.93
2022-09-11T07:55:43.692Z,10.43
2022-09-11T07:58:35.738Z,10.32
2022-09-11T08:01:26.125Z,10.88
2022-09-11T08:04:15.801Z,9.75
2022-09-11T08:07:03.647Z,10.23
2022-09-11T08:10:16.441Z,10.95
2022-09-11T08:13:09.305Z,11.82
2022-09-11T08:15:59.374Z,10.55
2022-09-11T08:18:48.312Z,9.98
2022-09-11T08:21:36.878Z,9.90
2022-09-11T08:24:27.390Z,9.98
2022-09-11T08:27:18.718Z,8.95
2022-09-11T08:30:08.600Z,9.35
2022-09-11T08:32:57.983Z,8.45
2022-09-11T08:35:45.986Z,8.70
2022-09-11T08:38:34.884Z,8.80
2022-09-11T08:41:36.223Z,9.13
2022-09-11T08:44:28.294Z,9.85
2022-09-11T08:47:30.037Z,9.25
2022-09-11T08:50:25.682Z,9.05
2022-09-11T08:53:17.445Z,8.75
2022-09-11T08:56:10.409Z,8.38
2022-09-11T08:59:19.901Z,8.73
2022-09-11T09:02:20.461Z,8.75
2022-09-11T09:05:21.888Z,9.93
2022-09-11T09:08:29.139Z,10.00
2022-09-11T09:11:28.688Z,8.68
2022-09-11T09:14:40.905Z,9.68
2022-09-11T09:17:33.920Z,10.32
2022-09-11T09:20:28.439Z,9.32
2022-09-11T09:23:22.360Z,10.45
2022-09-11T09:26:18.956Z,11.98
2022-09-11T09:29:14.969Z,12.18
2022-09-11T09:32:08.196Z,10.77
2022-09-11T09:34:59.300Z,10.93
2022-09-11T09:37:48.777Z,10.85
2022-09-11T09:40:38.643Z,9.95
2022-09-11T09:43:42.909Z,10.07
2022-09-11T09:46:37.394Z,10.07
2022-09-11T09:49:28.122Z,9.77
2022-09-11T09:52:19.464Z,10.20
2022-09-11T09:55:17.326Z,8.35
2022-09-11T09:58:05.037Z,8.02
2022-09-11T10:00:52.796Z,7.70
2022-09-11T10:03:40.575Z,7.18
2022-09-11T10:06:28.616Z,7.90
2022-09-11T10:09:25.589Z,7.03
2022-09-11T10:12:20.692Z,7.28
2022-09-11T10:15:19.352Z,5.95
2022-09-11T10:18:33.635Z,6.00
2022-09-11T10:21:33.440Z,6.25
2022-09-11T10:24:24.128Z,6.32
2022-09-11T10:27:19.767Z,6.82
2022-09-11T10:30:27.057Z,7.35
2022-09-11T10:33:20.853Z,7.50
2022-09-11T10:36:10.370Z,8.63
2022-09-11T10:39:00.291Z,8.82
2022-09-11T10:41:51.044Z,9.20
2022-09-11T10:44:44.757Z,8.88
2022-09-11T10:47:34.246Z,8.50
2022-09-11T10:50:25.453Z,8.40
2022-09-11T10:53:21.440Z,8.55
2022-09-11T10:56:11.061Z,8.65
2022-09-11T10:59:02.647Z,8.20
2022-09-11T11:01:54.567Z,8.13
2022-09-11T11:04:42.409Z,8.52
2022-09-11T11:07:50.303Z,7.82
2022-09-11T11:10:51.301Z,5.88
2022-09-11T11:13:59.264Z,6.65
2022-09-11T11:16:56.198Z,6.55
2022-09-11T11:19:56.871Z,6.60
2022-09-11T11:23:05.675Z,5.35
2022-09-11T11:26:07.285Z,5.45
2022-09-11T11:29:18.967Z,6.55
2022-09-11T11:32:30.367Z,4.97
2022-09-11T11:35:23.714Z,4.57
2022-09-11T11:38:17.298Z,4.78
2022-09-11T11:41:08.995Z,5.40
2022-09-11T11:44:00.400Z,5.57
2022-09-11T11:46:52.469Z,5.45
2022-09-11T11:49:52.153Z,5.80
2022-09-11T11:52:49.555Z,5.70
2022-09-11T11:55:49.684Z,5.75
2022-09-11T11:58:49.152Z,6.95
2022-09-11T12:01:41.798Z,7.10
2022-09-11T12:04:41.481Z,6.95
2022-09-11T12:07:32.652Z,8.63
2022-09-11T12:10:24.343Z,7.03
2022-09-11T12:13:16.464Z,8.05
2022-09-11T12:16:15.079Z,7.38
2022-09-11T12:19:13.863Z,8.05
2022-09-11T12:22:14.495Z,9.25
2022-09-11T12:25:03.454Z,8.85
2022-09-11T12:27:55.797Z,9.32
2022-09-11T12:30:59.627Z,8.65
2022-09-11T12:33:57.423Z,8.68
2022-09-11T12:36:53.910Z,8.10
2022-09-11T12:39:51.414Z,7.97
2022-09-11T12:42:58.794Z,7.70
2022-09-11T12:45:48.510Z,6.25
2022-09-11T12:48:41.451Z,6.75
2022-09-11T12:51:32.602Z,6.85
2022-09-11T12:54:25.879Z,5.22
2022-09-11T12:57:20.623Z,5.00
2022-09-11T13:00:24.042Z,5.05
2022-09-11T13:03:19.689Z,4.55
2022-09-11T13:06:10.706Z,4.50
2022-09-11T13:09:01.311Z,4.25
2022-09-11T13:11:51.005Z,4.20
2022-09-11T13:14:52.553Z,4.40
2022-09-11T13:17:48.149Z,4.32
2022-09-11T13:20:35.980Z,4.35
2022-09-11T13:23:23.491Z,4.00
2022-09-11T13:26:18.258Z,4.53
2022-09-11T13:29:06.573Z,4.50
2022-09-11T13:31:55.862Z,5.00
2022-09-11T13:34:48.781Z,5.03
2022-09-11T13:37:40.964Z,4.97
2022-09-11T13:40:33.472Z,4.93
2022-09-11T13:43:25.556Z,4.68
2022-09-11T13:46:22.151Z,5.85
2022-09-11T13:49:28.912Z,5.30
2022-09-11T13:52:18.926Z,5.22
2022-09-11T13:55:12.547Z,5.45
2022-09-11T13:58:02.102Z,5.80
2022-09-11T14:00:52.278Z,5.15
2022-09-11T14:03:43.969Z,7.30
2022-09-11T14:06:31.934Z,5.43
2022-09-11T14:09:22.915Z,5.15
2022-09-11T14:12:10.687Z,5.15
2022-09-11T14:15:02.153Z,5.30
2022-09-11T14:17:50.410Z,5.10
2022-09-11T14:20:43.225Z,5.35
2022-09-11T14:23:31.507Z,4.55
2022-09-11T14:26:22.850Z,4.47
2022-09-11T14:29:28.760Z,5.10
2022-09-11T14:32:32.444Z,4.32
2022-09-11T14:35:20.481Z,4.63
2022-09-11T14:38:10.782Z,5.22
2022-09-11T14:41:01.392Z,5.13
2022-09-11T14:43:50.980Z,5.50
2022-09-11T14:46:38.814Z,4.40
2022-09-11T14:49:27.488Z,5.00
2022-09-11T14:52:16.631Z,4.88
2022-09-11T14:55:04.365Z,5.38
2022-09-11T14:57:51.848Z,5.43
2022-09-11T15:00:41.138Z,4.82
2022-09-11T15:03:30.075Z,5.05
2022-09-11T15:06:21.552Z,4.93
2022-09-11T15:09:10.511Z,5.75
2022-09-11T15:11:58.277Z,5.60
2022-09-11T15:15:02.041Z,4.95
2022-09-11T15:17:51.635Z,5.15
2022-09-11T15:20:39.935Z,4.80
2022-09-11T15:23:27.716Z,4.93
2022-09-11T15:26:15.241Z,4.63
2022-09-11T15:29:03.207Z,4.40
2022-09-11T15:31:51.344Z,4.55
2022-09-11T15:34:42.478Z,4.72
2022-09-11T15:37:30.295Z,4.85
2022-09-11T15:40:18.159Z,4.60
2022-09-11T15:43:06.026Z,4.53
2022-09-11T15:45:55.308Z,5.00
2022-09-11T15:48:42.941Z,5.50
2022-09-11T15:51:32.126Z,4.65
2022-09-11T15:54:20.616Z,4.30
2022-09-11T15:57:09.009Z,4.57
2022-09-11T15:59:56.794Z,4.25
2022-09-11T16:02:44.309Z,4.90
2022-09-11T16:05:32.484Z,4.95
2022-09-11T16:08:22.919Z,5.00
2022-09-11T16:11:12.031Z,5.63
2022-09-11T16:14:01.572Z,5.63
2022-09-11T16:16:49.095Z,6.28
2022-09-11T16:19:38.737Z,6.13
2022-09-11T16:22:26.973Z,5.97
2022-09-11T16:25:16.131Z,6.40
2022-09-11T16:28:04.138Z,6.47
2022-09-11T16:30:54.536Z,7.65
2022-09-11T16:33:44.883Z,6.85
2022-09-11T16:36:38.473Z,6.40
2022-09-11T16:39:26.715Z,8.02
2022-09-11T16:42:16.491Z,5.07
2022-09-11T16:45:04.673Z,3.95
2022-09-11T16:47:52.607Z,3.78
2022-09-11T16:50:40.368Z,4.32
2022-09-11T16:53:31.590Z,3.78
2022-09-11T16:56:21.616Z,3.83
2022-09-11T16:59:10.743Z,4.22
2022-09-11T17:01:58.784Z,3.38
2022-09-11T17:04:46.428Z,4.00
2022-09-11T17:07:34.338Z,3.70
2022-09-11T17:10:21.860Z,3.63
2022-09-11T17:13:10.216Z,4.55
2022-09-11T17:16:03.755Z,4.18
2022-09-11T17:18:54.088Z,4.07
2022-09-11T17:21:41.782Z,4.35
2022-09-11T17:24:31.758Z,4.28
2022-09-11T17:27:19.583Z,4.35
2022-09-11T17:30:08.522Z,5.57
2022-09-11T17:32:57.512Z,4.13
2022-09-11T17:35:46.145Z,5.05
2022-09-11T17:38:34.153Z,4.55
2022-09-11T17:41:22.048Z,5.57
2022-09-11T17:44:10.282Z,5.55
2022-09-11T17:47:02.256Z,4.80
2022-09-11T17:49:51.562Z,4.60
2022-09-11T17:52:39.365Z,4.78
2022-09-11T17:55:26.906Z,5.10
2022-09-11T17:58:14.809Z,4.50
2022-09-11T18:01:02.943Z,4.60
2022-09-11T18:03:54.938Z,4.50
2022-09-11T18:06:44.187Z,4.20
2022-09-11T18:09:32.161Z,3.65
2022-09-11T18:12:20.442Z,4.28
2022-09-11T18:15:09.695Z,4.78
2022-09-11T18:17:57.644Z,6.95
2022-09-11T18:20:45.408Z,4.72
2022-09-11T18:23:36.994Z,4.13
2022-09-11T18:26:27.055Z,4.45
2022-09-11T18:29:17.411Z,5.13
2022-09-11T18:32:06.763Z,4.45
2022-09-11T18:34:54.560Z,4.53
2022-09-11T18:37:42.363Z,4.18
2022-09-11T18:40:31.611Z,4.80
2022-09-11T18:43:19.580Z,4.45
2022-09-11T18:46:07.375Z,5.63
2022-09-11T18:48:55.983Z,5.93
2022-09-11T18:51:44.269Z,5.30
2022-09-11T18:54:32.165Z,4.75
2022-09-11T18:57:21.207Z,4.50
2022-09-11T19:00:14.043Z,5.35
2022-09-11T19:03:01.737Z,5.55
2022-09-11T19:05:50.749Z,5.20
2022-09-11T19:08:38.967Z,5.40
2022-09-11T19:11:28.759Z,4.40
2022-09-11T19:14:17.808Z,6.45
2022-09-11T19:17:05.616Z,4.80
2022-09-11T19:19:53.107Z,5.05
2022-09-11T19:22:40.825Z,4.35
2022-09-11T19:25:30.025Z,5.40
2022-09-11T19:28:17.867Z,5.20
2022-09-11T19:31:07.591Z,7.30
2022-09-11T19:33:56.528Z,5.28
2022-09-11T19:36:44.247Z,5.45
2022-09-11T19:39:31.937Z,4.43
2022-09-11T19:42:20.261Z,4.82
2022-09-11T19:45:09.489Z,4.40
2022-09-11T19:48:00.265Z,5.28
2022-09-11T19:50:47.958Z,5.10
2022-09-11T19:53:35.950Z,5.53
2022-09-11T19:56:24.493Z,5.13
2022-09-11T19:59:14.364Z,4.78
2022-09-11T20:02:02.307Z,4.88
2022-09-11T20:04:51.796Z,5.07
2022-09-11T20:07:39.532Z,5.13
2022-09-11T20:10:27.801Z,6.53
2022-09-11T20:13:16.071Z,5.18
2022-09-11T20:16:04.838Z,4.82
2022-09-11T20:18:55.380Z,7.75
2022-09-11T20:21:44.733Z,6.43
2022-09-11T20:24:32.350Z,6.82
2022-09-11T20:27:20.042Z,6.70
2022-09-11T20:30:08.940Z,7.65
2022-09-11T20:32:56.706Z,6.95
2022-09-11T20:35:44.660Z,6.88
2022-09-11T20:38:33.648Z,8.60
2022-09-11T20:41:23.365Z,7.80
2022-09-11T20:44:11.519Z,7.47
2022-09-11T20:47:00.573Z,6.80
2022-09-11T20:49:48.275Z,9.65
2022-09-11T20:52:39.358Z,8.27
2022-09-11T20:55:28.959Z,8.82
2022-09-11T20:58:16.295Z,9.80
2022-09-11T21:01:05.094Z,9.93
2022-09-11T21:03:54.492Z,10.93
2022-09-11T21:06:42.439Z,9.45
2022-09-11T21:09:30.154Z,10.32
2022-09-11T21:12:19.250Z,11.07
2022-09-11T21:15:09.213Z,11.23
2022-09-11T21:17:56.951Z,11.48
2022-09-11T21:20:53.453Z,11.18
2022-09-11T21:23:41.087Z,10.32
2022-09-11T21:26:29.691Z,9.63
2022-09-11T21:29:18.965Z,11.25
2022-09-11T21:32:06.565Z,12.52
2022-09-11T21:34:54.533Z,10.68
2022-09-11T21:37:41.978Z,10.32
2022-09-11T21:40:29.696Z,12.55
2022-09-11T21:43:17.598Z,11.52
2022-09-11T21:46:09.343Z,11.38
2022-09-11T21:48:56.974Z,12.57
2022-09-11T21:51:44.656Z,11.77
2022-09-11T21:54:32.485Z,10.98
2022-09-11T21:57:20.768Z,11.68
2022-09-11T22:00:11.232Z,11.55
2022-09-11T22:03:00.369Z,11.10
2022-09-11T22:05:51.281Z,10.82
2022-09-11T22:08:39.888Z,10.95
2022-09-11T22:11:28.370Z,10.52
2022-09-11T22:14:20.318Z,10.93
2022-09-11T22:17:07.839Z,9.90
2022-09-11T22:19:57.418Z,8.55
2022-09-11T22:22:45.026Z,9.48
2022-09-11T22:25:33.011Z,9.30
2022-09-11T22:28:20.648Z,8.80
2022-09-11T22:31:09.013Z,9.27
2022-09-11T22:33:57.595Z,8.68
2022-09-11T22:36:46.817Z,9.18
2022-09-11T22:39:34.718Z,8.30
2022-09-11T22:42:22.642Z,7.78
2022-09-11T22:45:11.134Z,6.93
2022-09-11T22:48:00.516Z,7.25
2022-09-11T22:50:48.213Z,6.90
2022-09-11T22:53:39.530Z,7.20
2022-09-11T22:56:27.483Z,6.55
2022-09-11T22:59:15.356Z,7.60
2022-09-11T23:02:04.256Z,8.93
2022-09-11T23:05:06.214Z,8.02
2022-09-11T23:07:54.540Z,8.10
2022-09-11T23:10:44.730Z,7.63
2022-09-11T23:13:33.698Z,6.90
2022-09-11T23:16:23.925Z,7.28
2022-09-11T23:19:13.987Z,6.80
2022-09-11T23:22:01.783Z,6.10
2022-09-11T23:24:49.366Z,7.00
2022-09-11T23:27:38.324Z,6.95
2022-09-11T23:30:26.057Z,7.00
2022-09-11T23:33:13.873Z,6.97
2022-09-11T23:36:06.487Z,11.65
2022-09-11T23:38:54.362Z,6.93
2022-09-11T23:41:41.822Z,7.32
2022-09-11T23:44:31.237Z,6.63
2022-09-11T23:47:18.818Z,7.22
2022-09-11T23:50:07.464Z,7.63
2022-09-11T23:52:55.213Z,7.15
2022-09-11T23:55:43.169Z,7.40
2022-09-11T23:58:30.918Z,8.27
